createdAt,value
2022-11-02T00:01:23.049Z,12.68
2022-11-02T00:03:24.793Z,13.45
2022-11-02T00:05:26.966Z,11.20
2022-11-02T00:07:28.551Z,11.95
2022-11-02T00:09:30.264Z,13.50
2022-11-02T00:11:31.909Z,12.40
2022-11-02T00:13:33.601Z,13.65
2022-11-02T00:15:36.368Z,13.55
2022-11-02T00:17:38.904Z,12.68
2022-11-02T00:19:40.555Z,11.98
2022-11-02T00:21:42.319Z,13.65
2022-11-02T00:23:44.194Z,12.88
2022-11-02T00:25:48.032Z,13.00
2022-11-02T00:29:51.176Z,14.65
2022-11-02T00:31:53.100Z,13.23
2022-11-02T00:33:54.727Z,13.52
2022-11-02T00:35:56.484Z,12.57
2022-11-02T00:37:58.066Z,13.43
2022-11-02T00:39:59.679Z,14.68
2022-11-02T00:42:01.453Z,17.80
2022-11-02T00:44:03.088Z,15.00
2022-11-02T00:46:04.974Z,12.98
2022-11-02T00:48:07.086Z,14.10
2022-11-02T00:50:09.394Z,13.00
2022-11-02T00:52:11.078Z,12.20
2022-11-02T00:54:12.706Z,13.23
2022-11-02T00:56:14.273Z,13.82
2022-11-02T00:58:16.114Z,14.18
2022-11-02T01:00:18.149Z,16.33
2022-11-02T01:02:19.881Z,15.85
2022-11-02T01:04:21.594Z,14.63
2022-11-02T01:06:23.851Z,13.55
2022-11-02T01:08:25.561Z,13.57
2022-11-02T01:10:27.336Z,11.30
2022-11-02T01:12:28.910Z,10.68
2022-11-02T01:14:30.679Z,11.43
2022-11-02T01:16:32.918Z,10.93
2022-11-02T01:18:35.278Z,10.73
2022-11-02T01:20:36.944Z,10.38
2022-11-02T01:22:38.859Z,9.60
2022-11-02T01:24:40.671Z,10.07
2022-11-02T01:26:42.396Z,11.13
2022-11-02T01:28:44.047Z,11.50
2022-11-02T01:30:48.628Z,10.88
2022-11-02T01:32:50.208Z,11.07
2022-11-02T01:34:51.826Z,11.52
2022-11-02T01:36:53.447Z,10.18
2022-11-02T01:38:55.956Z,9.82
2022-11-02T01:40:57.770Z,10.32
2022-11-02T01:42:59.406Z,10.73
2022-11-02T01:45:01.282Z,10.15
2022-11-02T01:47:20.008Z,10.00
2022-11-02T01:49:22.408Z,26.80
2022-11-02T01:51:30.237Z,22.85
2022-11-02T01:53:34.115Z,21.92
2022-11-02T01:57:38.309Z,21.45
2022-11-02T01:59:57.540Z,22.08
2022-11-02T02:01:59.565Z,19.38
2022-11-02T02:04:01.473Z,19.80
2022-11-02T02:06:07.100Z,18.33
2022-11-02T02:08:10.026Z,20.33
2022-11-02T02:10:12.001Z,17.87
2022-11-02T02:12:14.141Z,18.35
2022-11-02T02:14:17.796Z,16.13
2022-11-02T02:16:37.280Z,16.05
2022-11-02T02:19:01.163Z,13.30
2022-11-02T02:21:21.288Z,11.48
2022-11-02T02:23:45.241Z,13.43
2022-11-02T02:26:20.477Z,14.82
2022-11-02T02:28:28.083Z,13.63
2022-11-02T02:30:32.640Z,16.80
2022-11-02T02:32:37.786Z,14.25
2022-11-02T02:34:49.946Z,12.15
2022-11-02T02:37:19.804Z,11.20
2022-11-02T02:40:06.902Z,12.07
2022-11-02T02:42:21.943Z,12.02
2022-11-02T02:44:24.122Z,11.38
2022-11-02T02:46:25.770Z,9.85
2022-11-02T02:48:27.459Z,11.85
2022-11-02T02:50:53.834Z,11.10
2022-11-02T02:52:56.477Z,12.07
2022-11-02T02:54:59.497Z,13.30
2022-11-02T02:57:09.565Z,13.32
2022-11-02T02:59:43.978Z,12.63
2022-11-02T03:01:46.265Z,13.20
2022-11-02T03:03:48.352Z,10.65
2022-11-02T03:06:04.857Z,12.18
2022-11-02T03:08:12.655Z,13.57
2022-11-02T03:10:35.878Z,13.45
2022-11-02T03:12:58.824Z,11.73
2022-11-02T03:15:00.401Z,10.20
2022-11-02T03:17:11.247Z,10.85
2022-11-02T03:19:21.420Z,11.15
2022-11-02T03:21:34.480Z,12.75
2022-11-02T03:23:40.058Z,14.32
2022-11-02T03:26:12.609Z,13.48
2022-11-02T03:28:29.442Z,13.27
2022-11-02T03:30:34.809Z,13.23
2022-11-02T03:32:42.473Z,12.50
2022-11-02T03:34:48.802Z,12.25
2022-11-02T03:37:15.539Z,12.05
2022-11-02T03:39:20.474Z,12.40
2022-11-02T03:41:23.279Z,12.00
2022-11-02T03:43:25.386Z,12.35
2022-11-02T03:45:30.628Z,12.23
2022-11-02T03:47:34.364Z,12.63
2022-11-02T03:49:36.223Z,13.52
2022-11-02T03:51:38.942Z,13.82
2022-11-02T03:54:17.961Z,11.90
2022-11-02T03:56:25.880Z,12.45
2022-11-02T03:58:27.656Z,12.95
2022-11-02T04:00:35.214Z,13.40
2022-11-02T04:02:38.013Z,14.77
2022-11-02T04:04:52.900Z,15.27
2022-11-02T04:06:55.117Z,15.15
2022-11-02T04:08:56.715Z,21.17
2022-11-02T04:11:17.176Z,26.48
2022-11-02T04:13:37.645Z,29.45
2022-11-02T04:15:39.279Z,28.75
2022-11-02T04:17:59.369Z,23.73
2022-11-02T04:20:01.222Z,23.05
2022-11-02T04:22:21.444Z,18.23
2022-11-02T04:24:41.223Z,15.43
2022-11-02T04:26:42.955Z,13.45
2022-11-02T04:28:44.595Z,13.63
2022-11-02T04:30:46.285Z,14.27
2022-11-02T04:33:09.023Z,14.43
2022-11-02T04:35:10.695Z,13.75
2022-11-02T04:39:37.418Z,12.48
2022-11-02T04:41:42.167Z,13.10
2022-11-02T04:43:44.468Z,13.65
2022-11-02T04:45:46.145Z,12.88
2022-11-02T04:47:47.804Z,13.80
2022-11-02T04:49:49.390Z,13.55
2022-11-02T04:51:50.943Z,14.60
2022-11-02T04:53:54.297Z,14.02
2022-11-02T04:55:55.904Z,13.80
2022-11-02T04:57:57.511Z,14.98
2022-11-02T04:59:59.179Z,13.75
2022-11-02T05:02:00.830Z,14.90
2022-11-02T05:04:02.563Z,15.25
2022-11-02T05:06:04.369Z,15.25
2022-11-02T05:08:06.327Z,15.07
2022-11-02T05:10:09.251Z,13.85
2022-11-02T05:12:10.892Z,14.68
2022-11-02T05:14:12.506Z,14.18
2022-11-02T05:16:16.120Z,14.60
2022-11-02T05:18:19.251Z,14.27
2022-11-02T05:20:21.020Z,14.40
2022-11-02T05:22:22.682Z,14.48
2022-11-02T05:24:24.276Z,14.48
2022-11-02T05:26:25.890Z,14.18
2022-11-02T05:28:28.753Z,14.93
2022-11-02T05:30:30.340Z,16.52
2022-11-02T05:32:32.235Z,16.30
2022-11-02T05:34:34.017Z,16.17
2022-11-02T05:36:35.585Z,16.58
2022-11-02T05:38:37.212Z,15.90
2022-11-02T05:40:40.921Z,15.45
2022-11-02T05:42:42.479Z,14.07
2022-11-02T05:44:44.123Z,16.20
2022-11-02T05:46:45.940Z,14.65
2022-11-02T05:48:47.526Z,15.27
2022-11-02T05:50:49.423Z,16.70
2022-11-02T05:52:51.084Z,17.27
2022-11-02T05:54:52.647Z,16.13
2022-11-02T05:56:54.230Z,16.80
2022-11-02T05:58:56.018Z,16.42
2022-11-02T06:01:02.013Z,16.33
2022-11-02T06:03:04.088Z,16.45
2022-11-02T06:05:06.484Z,16.27
2022-11-02T06:07:08.121Z,16.52
2022-11-02T06:09:09.783Z,15.68
2022-11-02T06:11:12.804Z,16.52
2022-11-02T06:13:14.499Z,17.83
2022-11-02T06:15:16.519Z,16.98
2022-11-02T06:17:18.141Z,16.63
2022-11-02T06:19:19.717Z,16.17
2022-11-02T06:21:21.344Z,17.02
2022-11-02T06:23:22.963Z,15.30
2022-11-02T06:25:24.698Z,17.30
2022-11-02T06:27:26.281Z,16.33
2022-11-02T06:29:27.908Z,16.90
2022-11-02T06:31:29.475Z,15.88
2022-11-02T06:33:31.235Z,15.07
2022-11-02T06:35:32.895Z,15.25
2022-11-02T06:37:34.960Z,16.23
2022-11-02T06:41:43.063Z,15.80
2022-11-02T06:43:44.670Z,17.83
2022-11-02T06:45:46.995Z,16.88
2022-11-02T06:47:49.077Z,16.90
2022-11-02T06:49:51.991Z,15.98
2022-11-02T06:51:53.890Z,15.53
2022-11-02T06:53:55.495Z,15.68
2022-11-02T06:55:58.405Z,15.63
2022-11-02T06:58:00.104Z,15.33
2022-11-02T07:00:05.016Z,16.95
2022-11-02T07:02:06.777Z,15.95
2022-11-02T07:04:08.560Z,16.45
2022-11-02T07:06:14.160Z,16.85
2022-11-02T07:08:16.191Z,17.58
2022-11-02T07:10:17.784Z,17.42
2022-11-02T07:12:22.988Z,16.70
2022-11-02T07:14:24.918Z,15.88
2022-11-02T07:16:26.600Z,17.30
2022-11-02T07:18:28.245Z,18.42
2022-11-02T07:20:30.480Z,16.90
2022-11-02T07:22:32.162Z,17.08
2022-11-02T07:24:33.751Z,17.27
2022-11-02T07:26:35.911Z,15.93
2022-11-02T07:28:38.435Z,15.07
2022-11-02T07:30:40.200Z,23.08
2022-11-02T07:32:42.659Z,18.00
2022-11-02T07:34:44.256Z,16.63
2022-11-02T07:36:46.251Z,16.83
2022-11-02T07:38:47.828Z,17.17
2022-11-02T07:40:51.127Z,18.60
2022-11-02T07:42:54.099Z,16.38
2022-11-02T07:44:55.718Z,16.38
2022-11-02T07:46:57.521Z,17.45
2022-11-02T07:48:59.255Z,17.58
2022-11-02T07:51:01.257Z,16.20
2022-11-02T07:53:03.450Z,17.40
2022-11-02T07:55:05.536Z,18.25
2022-11-02T07:57:07.159Z,18.33
2022-11-02T07:59:10.711Z,18.05
2022-11-02T08:01:12.478Z,18.33
2022-11-02T08:03:14.909Z,19.90
2022-11-02T08:05:16.726Z,19.05
2022-11-02T08:07:18.292Z,19.38
2022-11-02T08:09:19.977Z,18.30
2022-11-02T08:11:21.755Z,18.98
2022-11-02T08:13:25.990Z,19.25
2022-11-02T08:15:27.599Z,19.63
2022-11-02T08:17:29.267Z,18.70
2022-11-02T08:19:30.902Z,18.80
2022-11-02T08:21:32.520Z,19.63
2022-11-02T08:23:34.093Z,18.27
2022-11-02T08:25:37.661Z,17.85
2022-11-02T08:27:39.349Z,17.88
2022-11-02T08:29:41.172Z,19.00
2022-11-02T08:31:42.740Z,18.15
2022-11-02T08:33:44.965Z,18.00
2022-11-02T08:35:47.722Z,17.25
2022-11-02T08:37:55.997Z,17.88
2022-11-02T08:39:57.646Z,18.90
2022-11-02T08:41:59.257Z,18.38
2022-11-02T08:44:01.128Z,18.75
2022-11-02T08:46:18.746Z,17.70
2022-11-02T08:48:20.444Z,16.20
2022-11-02T08:50:23.253Z,16.92
2022-11-02T08:52:24.878Z,17.03
2022-11-02T08:54:26.502Z,18.70
2022-11-02T08:56:28.800Z,21.92
2022-11-02T08:58:30.367Z,72.10
2022-11-02T09:00:33.508Z,21.65
2022-11-02T09:02:35.329Z,21.08
2022-11-02T09:04:36.985Z,18.73
2022-11-02T09:06:38.552Z,18.83
2022-11-02T09:08:40.180Z,19.92
2022-11-02T09:10:41.751Z,18.80
2022-11-02T09:12:43.369Z,19.20
2022-11-02T09:14:45.006Z,20.20
2022-11-02T09:16:46.580Z,18.20
2022-11-02T09:18:48.171Z,19.80
2022-11-02T09:20:51.556Z,19.55
2022-11-02T09:22:53.286Z,21.42
2022-11-02T09:24:54.847Z,20.23
2022-11-02T09:26:56.478Z,18.30
2022-11-02T09:28:58.031Z,22.13
2022-11-02T09:30:59.633Z,19.95
2022-11-02T09:33:03.982Z,20.67
2022-11-02T09:35:08.650Z,18.88
2022-11-02T09:37:10.230Z,18.15
2022-11-02T09:39:11.892Z,18.50
2022-11-02T09:41:35.049Z,18.40
2022-11-02T09:43:59.776Z,17.38
2022-11-02T09:46:07.152Z,18.38
2022-11-02T09:48:19.886Z,17.65
2022-11-02T09:50:34.801Z,19.17
2022-11-02T09:52:38.106Z,18.00
2022-11-02T09:54:46.035Z,18.83
2022-11-02T09:56:48.219Z,18.15
2022-11-02T09:58:56.125Z,18.38
2022-11-02T10:01:01.907Z,17.70
2022-11-02T10:03:42.837Z,17.17
2022-11-02T10:05:53.123Z,17.27
2022-11-02T10:08:01.684Z,17.60
2022-11-02T10:10:05.852Z,16.55
2022-11-02T10:12:15.210Z,16.95
2022-11-02T10:14:28.751Z,16.75
2022-11-02T10:16:35.311Z,16.95
2022-11-02T10:18:37.942Z,16.58
2022-11-02T10:20:44.659Z,16.52
2022-11-02T10:22:47.892Z,16.85
2022-11-02T10:24:50.413Z,17.55
2022-11-02T10:26:56.173Z,15.73
2022-11-02T10:29:04.923Z,16.20
2022-11-02T10:31:27.512Z,16.48
2022-11-02T10:33:30.479Z,17.00
2022-11-02T10:38:31.574Z,14.32
2022-11-02T10:40:45.305Z,13.25
2022-11-02T10:42:59.400Z,12.63
2022-11-02T10:45:16.640Z,12.05
2022-11-02T10:47:20.561Z,9.77
2022-11-02T10:50:06.948Z,10.07
2022-11-02T10:52:16.248Z,11.75
2022-11-02T10:54:21.727Z,9.98
2022-11-02T10:56:32.775Z,9.95
2022-11-02T10:58:37.084Z,9.23
2022-11-02T11:00:39.089Z,8.80
2022-11-02T11:02:40.767Z,7.50
2022-11-02T11:04:43.042Z,8.10
2022-11-02T11:06:44.603Z,6.50
2022-11-02T11:08:53.659Z,6.38
2022-11-02T11:10:55.325Z,4.88
2022-11-02T11:12:57.120Z,5.47
2022-11-02T11:19:51.783Z,5.07
2022-11-02T11:21:53.515Z,5.07
2022-11-02T11:24:22.242Z,4.65
2022-11-02T11:26:28.452Z,4.20
2022-11-02T11:28:34.963Z,4.30
2022-11-02T11:33:01.722Z,4.00
2022-11-02T11:35:10.290Z,3.60
2022-11-02T11:37:15.156Z,3.85
2022-11-02T11:39:28.346Z,4.55
2022-11-02T11:41:31.481Z,3.88
2022-11-02T11:43:38.281Z,3.72
2022-11-02T11:45:39.925Z,4.05
2022-11-02T11:47:42.748Z,3.70
2022-11-02T11:52:17.856Z,3.60
2022-11-02T11:54:28.973Z,3.72
2022-11-02T11:56:30.648Z,3.78
2022-11-02T11:58:34.075Z,4.90
2022-11-02T12:00:35.716Z,4.95
2022-11-02T12:02:43.783Z,3.95
2022-11-02T12:04:46.254Z,4.43
2022-11-02T12:07:09.537Z,3.80
2022-11-02T12:09:42.221Z,5.37
2022-11-02T12:12:08.211Z,5.65
2022-11-02T12:14:31.350Z,4.78
2022-11-02T12:16:33.226Z,4.15
2022-11-02T12:18:49.879Z,4.00
2022-11-02T12:20:59.985Z,5.80
2022-11-02T12:23:29.150Z,7.18
2022-11-02T12:25:39.619Z,7.28
2022-11-02T12:27:57.139Z,6.38
2022-11-02T12:30:11.815Z,5.70
2022-11-02T12:32:42.269Z,5.32
2022-11-02T12:34:46.506Z,4.38
2022-11-02T12:37:32.762Z,5.40
2022-11-02T12:39:54.346Z,4.78
2022-11-02T12:42:02.681Z,6.05
2022-11-02T12:44:13.314Z,5.35
2022-11-02T12:46:42.214Z,4.43
2022-11-02T12:48:55.409Z,5.00
2022-11-02T12:51:13.284Z,4.32
2022-11-02T12:53:21.062Z,4.63
2022-11-02T12:55:26.277Z,4.18
2022-11-02T12:57:31.871Z,4.45
2022-11-02T12:59:34.845Z,4.45
2022-11-02T13:01:40.824Z,4.10
2022-11-02T13:04:18.096Z,4.57
2022-11-02T13:06:26.802Z,3.60
2022-11-02T13:08:47.759Z,4.70
2022-11-02T13:10:55.101Z,4.88
2022-11-02T13:13:00.361Z,5.22
2022-11-02T13:15:05.695Z,4.70
2022-11-02T13:17:33.812Z,5.18
2022-11-02T13:19:39.452Z,5.13
2022-11-02T13:21:45.101Z,5.07
2022-11-02T13:23:56.969Z,4.85
2022-11-02T13:26:04.043Z,5.28
2022-11-02T13:28:12.835Z,5.43
2022-11-02T13:30:16.888Z,4.97
2022-11-02T13:32:32.453Z,5.22
2022-11-02T13:34:38.074Z,5.07
2022-11-02T13:36:40.287Z,6.40
2022-11-02T13:38:49.496Z,5.15
2022-11-02T13:41:29.686Z,4.30
2022-11-02T13:43:53.892Z,5.20
2022-11-02T13:48:28.793Z,6.53
2022-11-02T13:50:32.133Z,5.95
2022-11-02T13:52:37.994Z,4.90
2022-11-02T13:54:48.976Z,4.53
2022-11-02T13:56:56.193Z,5.93
2022-11-02T13:59:03.794Z,5.38
2022-11-02T14:01:08.024Z,5.47
2022-11-02T14:03:14.064Z,8.38
2022-11-02T14:05:31.577Z,8.27
2022-11-02T14:07:35.935Z,8.40
2022-11-02T14:09:42.804Z,5.75
2022-11-02T14:11:44.316Z,5.65
2022-11-02T14:13:54.906Z,5.63
2022-11-02T14:15:56.906Z,6.22
2022-11-02T14:18:11.391Z,5.57
2022-11-02T14:20:35.857Z,7.53
2022-11-02T14:22:37.411Z,6.53
2022-11-02T14:24:39.604Z,6.90
2022-11-02T14:26:54.710Z,5.80
2022-11-02T14:28:56.422Z,5.30
2022-11-02T14:31:21.595Z,4.90
2022-11-02T14:33:58.359Z,4.75
2022-11-02T14:36:35.392Z,4.40
2022-11-02T14:38:57.100Z,5.05
2022-11-02T14:41:26.221Z,5.32
2022-11-02T14:44:01.844Z,4.90
2022-11-02T14:46:34.431Z,5.53
2022-11-02T14:48:52.895Z,5.32
2022-11-02T14:51:18.423Z,5.03
2022-11-02T14:53:26.066Z,5.40
2022-11-02T14:55:30.553Z,5.18
2022-11-02T14:57:36.015Z,5.22
2022-11-02T14:59:40.568Z,5.07
2022-11-02T15:01:58.303Z,5.35
2022-11-02T15:04:07.049Z,5.47
2022-11-02T15:06:11.493Z,5.60
2022-11-02T15:08:17.429Z,5.35
2022-11-02T15:10:19.002Z,5.10
2022-11-02T15:12:31.940Z,5.82
2022-11-02T15:14:54.748Z,5.43
2022-11-02T15:16:56.582Z,5.50
2022-11-02T15:19:52.000Z,4.85
2022-11-02T15:24:17.979Z,6.38
2022-11-02T15:28:27.451Z,6.72
2022-11-02T15:30:29.702Z,5.70
2022-11-02T15:32:34.792Z,6.50
2022-11-02T15:34:46.480Z,6.10
2022-11-02T15:36:48.205Z,6.32
2022-11-02T15:38:51.407Z,6.63
2022-11-02T15:41:08.100Z,6.40
2022-11-02T15:43:29.921Z,6.50
2022-11-02T15:45:56.927Z,6.47
2022-11-02T15:48:09.797Z,6.50
2022-11-02T15:50:22.879Z,6.93
2022-11-02T15:52:40.141Z,7.07
2022-11-02T15:55:28.353Z,7.82
2022-11-02T15:57:52.820Z,8.32
2022-11-02T16:00:12.282Z,7.32
2022-11-02T16:02:19.978Z,8.30
2022-11-02T16:04:22.378Z,8.00
2022-11-02T16:06:26.387Z,8.52
2022-11-02T16:08:38.097Z,7.43
2022-11-02T16:10:40.904Z,7.90
2022-11-02T16:12:42.461Z,7.20
2022-11-02T16:14:56.091Z,8.10
2022-11-02T16:16:57.707Z,7.00
2022-11-02T16:18:59.340Z,7.65
2022-11-02T16:21:02.316Z,8.15
2022-11-02T16:23:05.240Z,8.65
2022-11-02T16:25:16.856Z,8.30
2022-11-02T16:27:18.493Z,9.25
2022-11-02T16:29:36.133Z,7.45
2022-11-02T16:31:38.067Z,9.93
2022-11-02T16:33:40.791Z,7.38
2022-11-02T16:35:42.422Z,8.13
2022-11-02T16:37:44.672Z,7.82
2022-11-02T16:39:47.708Z,7.00
2022-11-02T16:41:51.557Z,7.50
2022-11-02T16:43:53.503Z,7.47
2022-11-02T16:46:00.785Z,6.93
2022-11-02T16:48:04.691Z,7.43
2022-11-02T16:50:20.606Z,6.10
2022-11-02T16:52:24.196Z,6.88
2022-11-02T16:56:32.315Z,6.88
2022-11-02T16:58:34.203Z,8.88
2022-11-02T17:00:36.390Z,8.07
2022-11-02T17:02:40.183Z,7.13
2022-11-02T17:04:43.088Z,8.70
2022-11-02T17:06:45.330Z,9.27
2022-11-02T17:08:54.877Z,8.93
2022-11-02T17:10:58.053Z,7.85
2022-11-02T17:13:00.001Z,6.22
2022-11-02T17:15:14.883Z,6.57
2022-11-02T17:17:22.334Z,6.43
2022-11-02T17:19:39.589Z,5.95
2022-11-02T17:21:44.356Z,6.03
2022-11-02T17:23:47.435Z,5.68
2022-11-02T17:25:49.243Z,7.30
2022-11-02T17:27:53.057Z,8.55
2022-11-02T17:29:54.931Z,7.57
2022-11-02T17:32:00.511Z,5.78
2022-11-02T17:34:10.155Z,5.05
2022-11-02T17:36:11.867Z,6.35
2022-11-02T17:38:13.579Z,5.05
2022-11-02T17:40:15.214Z,5.80
2022-11-02T17:42:35.684Z,5.68
2022-11-02T17:44:37.300Z,5.63
2022-11-02T17:46:41.673Z,6.25
2022-11-02T17:48:46.388Z,5.78
2022-11-02T17:50:48.152Z,6.00
2022-11-02T17:52:50.801Z,5.28
2022-11-02T17:54:52.391Z,5.50
2022-11-02T17:56:53.976Z,5.30
2022-11-02T17:58:55.589Z,5.85
2022-11-02T18:00:57.754Z,5.50
2022-11-02T18:02:59.622Z,5.13
2022-11-02T18:05:01.166Z,5.00
2022-11-02T18:07:02.774Z,5.53
2022-11-02T18:09:19.446Z,5.40
2022-11-02T18:11:26.063Z,5.35
2022-11-02T18:13:28.171Z,10.00
2022-11-02T18:15:31.648Z,5.38
2022-11-02T18:17:35.009Z,5.32
2022-11-02T18:19:36.793Z,5.35
2022-11-02T18:21:38.640Z,4.63
2022-11-02T18:23:41.106Z,5.30
2022-11-02T18:25:42.862Z,5.68
2022-11-02T18:27:45.812Z,7.25
2022-11-02T18:29:47.395Z,6.25
2022-11-02T18:31:50.084Z,6.80
2022-11-02T18:33:52.983Z,7.22
2022-11-02T18:36:02.232Z,5.38
2022-11-02T18:38:04.340Z,4.88
2022-11-02T18:40:07.565Z,5.10
2022-11-02T18:42:09.134Z,5.38
2022-11-02T18:44:15.294Z,5.78
2022-11-02T18:46:17.312Z,4.72
2022-11-02T18:48:18.884Z,5.43
2022-11-02T18:50:20.500Z,5.15
2022-11-02T18:52:22.627Z,5.10
2022-11-02T18:54:24.291Z,5.55
2022-11-02T18:56:26.525Z,5.15
2022-11-02T18:58:28.093Z,5.25
2022-11-02T19:00:29.679Z,5.32
2022-11-02T19:02:31.307Z,5.25
2022-11-02T19:04:33.634Z,5.15
2022-11-02T19:06:53.462Z,5.45
2022-11-02T19:09:13.333Z,6.00
2022-11-02T19:11:14.935Z,5.68
2022-11-02T19:13:16.721Z,6.10
2022-11-02T19:15:18.318Z,6.60
2022-11-02T19:17:21.771Z,5.93
2022-11-02T19:19:23.580Z,6.07
2022-11-02T19:21:25.499Z,6.28
2022-11-02T19:23:27.070Z,5.68
2022-11-02T19:25:28.687Z,5.53
2022-11-02T19:27:30.326Z,6.20
2022-11-02T19:29:31.994Z,6.47
2022-11-02T19:31:34.484Z,5.80
2022-11-02T19:33:36.153Z,5.50
2022-11-02T19:35:37.704Z,6.03
2022-11-02T19:37:39.241Z,6.88
2022-11-02T19:39:41.205Z,5.75
2022-11-02T19:41:42.815Z,5.28
2022-11-02T19:43:45.460Z,5.80
2022-11-02T19:45:47.070Z,5.53
2022-11-02T19:47:50.166Z,5.57
2022-11-02T19:49:51.739Z,5.38
2022-11-02T19:51:53.411Z,5.65
2022-11-02T19:53:58.134Z,5.85
2022-11-02T19:55:59.771Z,5.38
2022-11-02T19:58:01.444Z,5.95
2022-11-02T20:00:03.617Z,5.32
2022-11-02T20:02:05.201Z,5.60
2022-11-02T20:04:07.231Z,5.88
2022-11-02T20:06:15.327Z,5.22
2022-11-02T20:08:17.123Z,6.03
2022-11-02T20:10:18.829Z,6.03
2022-11-02T20:12:20.458Z,5.72
2022-11-02T20:14:22.058Z,6.13
2022-11-02T20:16:23.769Z,5.97
2022-11-02T20:18:25.802Z,5.82
2022-11-02T20:20:28.055Z,5.78
2022-11-02T20:22:29.681Z,5.88
2022-11-02T20:24:31.294Z,5.68
2022-11-02T20:26:34.968Z,5.68
2022-11-02T20:30:42.697Z,4.93
2022-11-02T20:32:44.284Z,5.70
2022-11-02T20:34:46.440Z,5.53
2022-11-02T20:36:48.120Z,5.38
2022-11-02T20:38:51.650Z,5.30
2022-11-02T20:40:53.264Z,5.60
2022-11-02T20:42:55.108Z,4.78
2022-11-02T20:44:57.240Z,5.07
2022-11-02T20:46:58.793Z,5.40
2022-11-02T20:49:08.592Z,5.45
2022-11-02T20:51:23.068Z,5.45
2022-11-02T20:53:25.458Z,5.15
2022-11-02T20:55:27.341Z,5.80
2022-11-02T20:57:29.316Z,5.03
2022-11-02T20:59:30.890Z,4.88
2022-11-02T21:01:32.570Z,4.95
2022-11-02T21:03:34.773Z,4.80
2022-11-02T21:05:36.392Z,4.85
2022-11-02T21:07:38.035Z,5.55
2022-11-02T21:09:39.702Z,5.03
2022-11-02T21:11:59.698Z,4.90
2022-11-02T21:14:01.423Z,5.22
2022-11-02T21:16:03.695Z,3.97
2022-11-02T21:18:05.396Z,4.32
2022-11-02T21:22:31.047Z,4.43
2022-11-02T21:24:32.773Z,4.05
2022-11-02T21:26:34.312Z,4.43
2022-11-02T21:30:44.050Z,4.13
2022-11-02T21:32:45.974Z,3.92
2022-11-02T21:34:47.574Z,3.97
2022-11-02T21:36:49.240Z,3.45
2022-11-02T21:38:50.980Z,4.03
2022-11-02T21:40:53.005Z,4.38
2022-11-02T21:42:54.628Z,3.90
2022-11-02T21:44:56.292Z,3.55
2022-11-02T21:46:57.854Z,3.50
2022-11-02T21:48:59.445Z,4.00
2022-11-02T21:51:01.029Z,3.67
2022-11-02T21:53:03.188Z,3.55
2022-11-02T21:55:05.723Z,3.58
2022-11-02T21:57:07.341Z,3.10
2022-11-02T21:59:09.854Z,3.53
2022-11-02T22:01:39.345Z,3.20
2022-11-02T22:03:41.119Z,3.78
2022-11-02T22:05:55.472Z,3.55
2022-11-02T22:08:16.107Z,3.30
2022-11-02T22:10:17.719Z,3.65
2022-11-02T22:12:37.592Z,4.40
2022-11-02T22:14:40.291Z,3.67
2022-11-02T22:16:43.032Z,3.85
2022-11-02T22:18:45.553Z,4.07
2022-11-02T22:20:54.609Z,4.13
2022-11-02T22:22:56.195Z,4.07
2022-11-02T22:24:57.775Z,4.93
2022-11-02T22:26:59.540Z,4.35
2022-11-02T22:29:01.586Z,4.57
2022-11-02T22:31:27.781Z,4.95
2022-11-02T22:33:29.373Z,5.57
2022-11-02T22:35:31.238Z,5.78
2022-11-02T22:37:51.287Z,6.03
2022-11-02T22:39:52.824Z,5.72
2022-11-02T22:41:54.739Z,6.53
2022-11-02T22:43:58.779Z,6.30
2022-11-02T22:46:05.571Z,7.60
2022-11-02T22:48:07.322Z,6.85
2022-11-02T22:50:09.140Z,6.15
2022-11-02T22:52:10.777Z,6.43
2022-11-02T22:54:15.727Z,6.32
2022-11-02T22:56:18.905Z,6.30
2022-11-02T22:58:20.475Z,6.55
2022-11-02T23:00:22.415Z,7.00
2022-11-02T23:02:24.037Z,6.70
2022-11-02T23:04:25.675Z,6.90
2022-11-02T23:06:28.008Z,6.63
2022-11-02T23:08:29.743Z,6.20
2022-11-02T23:10:53.498Z,5.18
2022-11-02T23:12:56.243Z,5.30
2022-11-02T23:14:57.836Z,5.45
2022-11-02T23:16:59.463Z,4.43
2022-11-02T23:19:29.151Z,4.53
2022-11-02T23:21:31.099Z,4.18
2022-11-02T23:23:51.271Z,4.43
2022-11-02T23:25:56.655Z,4.28
2022-11-02T23:28:17.376Z,4.15
2022-11-02T23:30:37.750Z,4.60
2022-11-02T23:32:39.621Z,4.32
2022-11-02T23:35:01.178Z,4.90
2022-11-02T23:37:05.821Z,4.93
2022-11-02T23:39:26.398Z,4.55
2022-11-02T23:41:29.110Z,4.63
2022-11-02T23:43:30.692Z,4.50
2022-11-02T23:45:32.290Z,4.32
2022-11-02T23:47:52.473Z,5.38
2022-11-02T23:49:54.047Z,4.20
2022-11-02T23:52:13.969Z,4.50
2022-11-02T23:54:33.919Z,3.80
2022-11-02T23:56:44.465Z,3.70
2022-11-02T23:58:46.557Z,4.05
